This is the latest recevied weather packets stored in our database for station/object SR9NLI. If no packets are shown the sender has not sent any weather packets the latest 1 day(s).
| Time | Temp. | Humidity | Pressure | Rain* | Wind** | Luminosity | Snow |
|---|---|---|---|---|---|---|---|
| 1777977095 | 22.78° C | 100% | 951.4 hPa | - | 3.58 m/s, 172° | - | - |
| 1777977033 | 22.78° C | 100% | 951.6 hPa | - | 3.13 m/s, 170° | - | - |
| 1777976911 | 22.78° C | 100% | 951.4 hPa | - | 3.13 m/s, 171° | - | - |
| 1777976788 | 22.78° C | 100% | 951.3 hPa | - | 3.13 m/s, 172° | - | - |
| 1777976727 | 22.78° C | 100% | 951.3 hPa | - | 3.58 m/s, 167° | - | - |
| 1777976664 | 22.78° C | 100% | 951.4 hPa | - | 3.13 m/s, 167° | - | - |
| 1777976542 | 23.33° C | 100% | 951.3 hPa | - | 1.79 m/s, 176° | - | - |
| 1777976419 | 22.78° C | 100% | 951.4 hPa | - | 1.79 m/s, 173° | - | - |
| 1777976358 | 22.78° C | 100% | 951.5 hPa | - | 4.02 m/s, 169° | - | - |
| 1777976295 | 22.78° C | 100% | 951.5 hPa | - | 4.47 m/s, 168° | - | - |
| 1777976172 | 22.78° C | 100% | 951.3 hPa | - | 4.92 m/s, 164° | - | - |
| 1777976059 | 22.78° C | 100% | 951.4 hPa | - | 6.26 m/s, 162° | - | - |
| 1777975988 | 22.78° C | 100% | 951.4 hPa | - | 6.26 m/s, 161° | - | - |
| 1777975926 | 22.22° C | 100% | 951.2 hPa | - | 5.36 m/s, 161° | - | - |
| 1777975802 | 23.33° C | 100% | 951.4 hPa | - | 4.02 m/s, 165° | - | - |
| 1777975679 | 22.78° C | 100% | 951.4 hPa | - | 4.92 m/s, 165° | - | - |
| 1777975618 | 22.78° C | 100% | 951.6 hPa | - | 4.92 m/s, 164° | - | - |
| 1777975556 | 22.78° C | 100% | 951.5 hPa | - | 4.92 m/s, 165° | - | - |
| 1777975434 | 23.33° C | 100% | 951.4 hPa | - | 3.58 m/s, 172° | - | - |
| 1777975311 | 23.33° C | 100% | 951.5 hPa | - | 1.79 m/s, 231° | - | - |
| 1777975250 | 23.33° C | 100% | 951.4 hPa | - | 1.79 m/s, 236° | - | - |
| 1777975188 | 23.33° C | 100% | 951.6 hPa | - | 1.34 m/s, 229° | - | - |
| 1777975065 | 23.33° C | 100% | 951.4 hPa | - | 1.34 m/s, 220° | - | - |
| 1777974942 | 22.78° C | 100% | 951.7 hPa | - | 1.34 m/s, 202° | - | - |
| 1777974881 | 22.78° C | 100% | 951.5 hPa | - | 1.79 m/s, 197° | - | - |
* Rain since midnight (hover to see other rain measurements)
** Current wind speed in m/s (hover to see current wind gust speed)